Time;durP1;ratioP1;P1;durP2;ratioP2;P2;SDS_P1;SDS_P2;PMS_P1;PMS_P2;Temp;Humidity;BMP_temperature;BMP_pressure;BME280_temperature;BME280_humidity;BME280_pressure;Samples;Min_cycle;Max_cycle;Signal;HPM_P1;HPM_P2
2022/12/02 06:00:40;;;;;;;31.43;22.90;;;7.20;97.20;;;;;;1661649;29;20674;-75
2022/12/02 06:01:34;;;;;;;31.80;24.65;;;7.20;97.20;;;;;;1661879;29;20211;-74
2022/12/02 06:02:31;;;;;;;28.52;23.05;;;7.20;97.20;;;;;;1661893;29;20282;-74
2022/12/02 06:03:22;;;;;;;31.70;24.23;;;7.20;97.20;;;;;;1661856;29;20195;-74
2022/12/02 06:04:16;;;;;;;34.67;25.37;;;7.20;97.20;;;;;;1662140;29;20217;-74
2022/12/02 06:05:17;;;;;;;29.90;23.30;;;7.20;97.20;;;;;;1661967;29;20211;-74
2022/12/02 06:06:10;;;;;;;30.60;23.90;;;7.20;97.20;;;;;;1662145;29;20211;-75
2022/12/02 06:07:07;;;;;;;32.70;25.38;;;7.20;97.20;;;;;;1661924;29;20271;-75
2022/12/02 06:08:08;;;;;;;33.50;24.13;;;7.20;97.20;;;;;;1661100;29;20214;-75
2022/12/02 06:08:59;;;;;;;33.97;24.30;;;7.20;97.20;;;;;;1661618;29;20218;-75
2022/12/02 06:09:53;;;;;;;29.52;23.25;;;7.20;97.20;;;;;;1661619;29;20731;-75
2022/12/02 06:10:47;;;;;;;30.65;24.35;;;7.20;97.20;;;;;;1661899;29;20235;-74
2022/12/02 06:11:39;;;;;;;31.80;24.40;;;7.20;97.20;;;;;;1661905;29;20254;-74
2022/12/02 06:12:30;;;;;;;31.10;24.45;;;7.20;97.20;;;;;;1662160;29;20216;-74
2022/12/02 06:13:24;;;;;;;32.30;23.80;;;7.20;97.20;;;;;;1662038;29;20199;-75
2022/12/02 06:14:18;;;;;;;32.83;24.60;;;7.20;97.20;;;;;;1661724;29;20211;-75
2022/12/02 06:15:13;;;;;;;32.08;23.20;;;7.20;97.20;;;;;;1661959;29;20257;-75
2022/12/02 06:16:08;;;;;;;29.80;22.58;;;7.20;97.20;;;;;;1662035;29;20210;-75
2022/12/02 06:17:03;;;;;;;28.10;21.40;;;7.20;97.20;;;;;;1661621;29;20716;-75
2022/12/02 06:17:53;;;;;;;32.22;24.23;;;7.20;97.20;;;;;;1661403;29;20211;-74
2022/12/02 06:18:45;;;;;;;32.10;24.50;;;7.20;97.20;;;;;;1661778;29;20207;-75
2022/12/02 06:19:42;;;;;;;32.05;24.40;;;7.20;97.20;;;;;;1661908;29;20211;-74
2022/12/02 06:20:34;;;;;;;32.75;23.70;;;7.20;97.20;;;;;;1661415;29;20228;-75
2022/12/02 06:21:26;;;;;;;31.25;23.33;;;7.20;97.20;;;;;;1661655;29;20209;-74
2022/12/02 06:22:20;;;;;;;32.10;24.30;;;7.20;97.20;;;;;;1660886;29;20613;-75
2022/12/02 06:23:14;;;;;;;30.85;23.65;;;7.20;97.20;;;;;;1661656;29;20207;-75
2022/12/02 06:24:09;;;;;;;32.55;24.02;;;7.20;97.20;;;;;;1661569;29;20199;-75
2022/12/02 06:25:02;;;;;;;32.55;25.02;;;7.20;97.20;;;;;;1661798;29;20208;-75
2022/12/02 06:25:54;;;;;;;33.60;23.48;;;7.20;97.20;;;;;;1661622;29;20303;-75
2022/12/02 06:26:45;;;;;;;30.50;23.75;;;7.20;97.20;;;;;;1661575;29;20215;-74
2022/12/02 06:27:37;;;;;;;30.53;23.13;;;7.20;97.20;;;;;;1662106;29;20211;-75
2022/12/02 06:28:30;;;;;;;31.23;23.55;;;7.20;97.20;;;;;;1662292;29;20222;-74
2022/12/02 06:29:22;;;;;;;31.67;23.67;;;7.20;97.20;;;;;;1662378;29;20203;-73
2022/12/02 06:30:14;;;;;;;30.70;23.08;;;7.20;97.20;;;;;;1661339;29;20207;-79
2022/12/02 06:31:13;;;;;;;28.70;23.08;;;7.20;97.20;;;;;;1662605;29;20219;-75
2022/12/02 06:32:10;;;;;;;29.55;22.85;;;7.20;97.20;;;;;;1659415;29;20215;-74
2022/12/02 06:33:01;;;;;;;29.77;21.88;;;7.20;97.20;;;;;;1656963;29;20235;-74
2022/12/02 06:33:54;;;;;;;31.53;23.67;;;7.20;97.20;;;;;;1661913;29;20215;-74
2022/12/02 06:34:48;;;;;;;29.98;22.45;;;7.20;97.20;;;;;;1661844;29;20452;-74
2022/12/02 06:35:41;;;;;;;29.95;22.85;;;7.20;97.20;;;;;;1661712;29;20685;-74
2022/12/02 06:36:33;;;;;;;31.63;22.98;;;7.20;97.20;;;;;;1662049;29;20215;-75
2022/12/02 06:37:29;;;;;;;25.65;21.20;;;7.20;97.20;;;;;;1661776;29;20266;-74
2022/12/02 06:38:27;;;;;;;29.63;21.55;;;7.20;97.20;;;;;;1660952;29;20223;-74
2022/12/02 06:39:22;;;;;;;34.78;22.58;;;7.20;97.20;;;;;;1661663;29;20200;-71
2022/12/02 06:40:22;;;;;;;28.92;22.80;;;7.20;97.20;;;;;;1661419;29;20222;-72
2022/12/02 06:41:17;;;;;;;28.15;21.55;;;7.20;97.20;;;;;;1661407;29;20218;-72
2022/12/02 06:42:19;;;;;;;26.95;20.40;;;7.20;97.20;;;;;;1661479;29;20211;-73
2022/12/02 06:43:15;;;;;;;25.98;20.88;;;7.20;97.20;;;;;;1661981;29;20644;-72
2022/12/02 06:45:36;;;;;;;27.30;21.92;;;7.20;97.20;;;;;;1655010;29;20652;-73
2022/12/02 06:46:29;;;;;;;26.17;21.08;;;7.30;97.20;;;;;;1655131;29;20348;-73
2022/12/02 06:47:58;;;;;;;29.48;21.00;;;7.20;97.20;;;;;;1654660;29;20222;-73
2022/12/02 06:48:58;;;;;;;25.38;20.45;;;7.20;97.20;;;;;;1654902;29;20211;-74
2022/12/02 06:49:49;;;;;;;23.92;19.85;;;7.20;97.20;;;;;;1654254;29;20236;-73
2022/12/02 06:50:43;;;;;;;29.45;21.05;;;7.20;97.20;;;;;;1654874;29;20236;-73
2022/12/02 06:51:33;;;;;;;27.90;21.13;;;7.30;97.20;;;;;;1658755;29;20215;-75
2022/12/02 06:52:25;;;;;;;26.17;20.50;;;7.30;97.20;;;;;;1662162;29;20203;-76
2022/12/02 06:53:24;;;;;;;25.48;21.05;;;7.30;97.20;;;;;;1661328;29;20215;-75
2022/12/02 06:54:20;;;;;;;26.10;20.90;;;7.30;97.20;;;;;;1661375;29;20658;-76
2022/12/02 06:55:26;;;;;;;25.63;20.20;;;7.30;97.20;;;;;;1661232;29;20216;-75
2022/12/02 06:56:24;;;;;;;25.42;20.92;;;7.30;97.20;;;;;;1661578;29;20263;-75
2022/12/02 06:57:17;;;;;;;23.95;19.15;;;7.30;97.20;;;;;;1661299;29;20595;-75
2022/12/02 06:58:25;;;;;;;26.23;20.73;;;7.30;97.20;;;;;;1661492;29;20211;-74
2022/12/02 06:59:21;;;;;;;27.15;21.60;;;7.30;97.20;;;;;;1660969;29;20224;-75
2022/12/02 07:00:13;;;;;;;27.08;20.85;;;7.30;97.20;;;;;;1660547;29;20207;-74
2022/12/02 07:01:23;;;;;;;27.75;21.27;;;7.30;97.20;;;;;;1661048;29;20298;-74
2022/12/02 07:02:25;;;;;;;26.88;20.48;;;7.30;97.20;;;;;;1661467;29;20226;-74
2022/12/02 07:03:28;;;;;;;26.58;20.95;;;7.30;97.20;;;;;;1661460;29;20261;-74
2022/12/02 07:04:37;;;;;;;25.40;20.02;;;7.30;97.20;;;;;;1661887;29;20199;-75
2022/12/02 07:05:29;;;;;;;27.20;19.33;;;7.30;97.20;;;;;;1662265;29;20631;-74
2022/12/02 07:06:22;;;;;;;24.08;20.15;;;7.30;97.20;;;;;;1658370;29;20215;-74
2022/12/02 07:07:18;;;;;;;25.27;20.38;;;7.20;97.20;;;;;;1661436;29;20211;-73
2022/12/02 07:08:10;;;;;;;28.50;21.20;;;7.20;97.20;;;;;;1662190;29;20666;-74
2022/12/02 07:09:04;;;;;;;26.98;20.13;;;7.20;97.20;;;;;;1661957;29;20207;-75
2022/12/02 07:09:59;;;;;;;23.98;18.25;;;7.20;97.20;;;;;;1661309;29;20227;-74
2022/12/02 07:10:50;;;;;;;23.95;20.13;;;7.20;97.20;;;;;;1662088;29;20223;-74
2022/12/02 07:11:52;;;;;;;25.73;19.70;;;7.20;97.20;;;;;;1661896;29;20215;-74
2022/12/02 07:12:45;;;;;;;25.48;19.45;;;7.20;97.20;;;;;;1661986;29;20227;-74
2022/12/02 07:13:36;;;;;;;26.52;19.50;;;7.20;97.20;;;;;;1661965;29;20233;-74
2022/12/02 07:14:32;;;;;;;25.40;19.30;;;7.20;97.20;;;;;;1662000;29;20230;-74
2022/12/02 07:15:27;;;;;;;26.42;19.20;;;7.20;97.20;;;;;;1662089;29;20743;-74
2022/12/02 07:16:32;;;;;;;24.80;19.67;;;7.20;97.20;;;;;;1661960;29;20222;-74
2022/12/02 07:17:29;;;;;;;24.33;19.67;;;7.20;97.20;;;;;;1662015;29;20282;-75
2022/12/02 07:18:20;;;;;;;25.85;19.45;;;7.20;97.20;;;;;;1662082;29;20196;-74
2022/12/02 07:19:15;;;;;;;20.45;18.08;;;7.20;97.20;;;;;;1662007;29;20207;-73
2022/12/02 07:20:27;;;;;;;22.95;18.33;;;7.20;97.20;;;;;;1661599;29;20659;-74
2022/12/02 07:21:18;;;;;;;22.75;18.65;;;7.20;97.20;;;;;;1661804;29;20202;-74
2022/12/02 07:22:18;;;;;;;24.90;19.77;;;7.10;97.20;;;;;;1662135;29;20199;-74
2022/12/02 07:23:15;;;;;;;21.20;17.65;;;7.10;97.20;;;;;;1662219;29;20569;-74
2022/12/02 07:24:10;;;;;;;22.00;17.80;;;7.10;97.20;;;;;;1661407;29;20203;-74
2022/12/02 07:25:38;;;;;;;22.48;18.10;;;7.10;97.20;;;;;;1661871;29;20211;-74
2022/12/02 07:26:29;;;;;;;22.50;18.17;;;7.10;97.20;;;;;;1647580;29;20214;-74
2022/12/02 07:27:24;;;;;;;23.23;17.27;;;7.10;97.20;;;;;;1661391;29;20210;-74
2022/12/02 07:28:23;;;;;;;24.00;18.02;;;7.10;97.20;;;;;;1662102;29;20453;-74
2022/12/02 07:29:25;;;;;;;21.38;17.60;;;7.10;97.20;;;;;;1661548;29;20581;-74
2022/12/02 07:30:22;;;;;;;21.95;18.13;;;7.10;97.20;;;;;;1661182;29;20287;-73
2022/12/02 07:31:23;;;;;;;22.95;18.73;;;7.20;97.20;;;;;;1661880;29;20268;-74
2022/12/02 07:32:14;;;;;;;21.60;17.25;;;7.20;97.20;;;;;;1661748;29;20218;-74
2022/12/02 07:33:07;;;;;;;21.83;17.43;;;7.10;97.20;;;;;;1662076;29;20207;-74
2022/12/02 07:33:58;;;;;;;21.88;18.27;;;7.20;97.20;;;;;;1661885;29;20460;-74
2022/12/02 07:34:50;;;;;;;21.73;18.00;;;7.20;97.20;;;;;;1662196;29;20211;-75
2022/12/02 07:35:40;;;;;;;22.52;17.88;;;7.20;97.20;;;;;;1661905;29;20211;-74
2022/12/02 07:36:32;;;;;;;23.57;18.60;;;7.10;97.20;;;;;;1662126;29;20749;-74
2022/12/02 07:37:23;;;;;;;24.98;18.65;;;7.20;97.20;;;;;;1661681;29;20211;-74
2022/12/02 07:38:15;;;;;;;22.70;17.70;;;7.20;97.20;;;;;;1662019;29;20207;-74
2022/12/02 07:39:05;;;;;;;22.02;17.52;;;7.20;97.20;;;;;;1661350;29;20215;-74
2022/12/02 07:39:57;;;;;;;21.03;16.80;;;7.20;97.20;;;;;;1660733;29;20213;-74
2022/12/02 07:40:48;;;;;;;22.38;17.10;;;7.20;97.20;;;;;;1661493;29;20483;-74
2022/12/02 07:41:40;;;;;;;18.13;15.83;;;7.20;97.20;;;;;;1661880;29;20221;-74
2022/12/02 07:42:30;;;;;;;21.40;17.88;;;7.20;97.20;;;;;;1661981;29;20218;-74
2022/12/02 07:43:22;;;;;;;21.83;16.60;;;7.10;97.20;;;;;;1661916;29;20210;-74
2022/12/02 07:44:13;;;;;;;21.48;16.75;;;7.20;97.20;;;;;;1661864;29;20207;-74
2022/12/02 07:45:05;;;;;;;21.67;17.40;;;7.20;97.20;;;;;;1661921;29;20222;-74
2022/12/02 07:45:56;;;;;;;20.30;16.42;;;7.20;97.20;;;;;;1661576;29;20215;-74
2022/12/02 07:46:48;;;;;;;20.43;15.67;;;7.20;97.20;;;;;;1661139;29;20294;-74
2022/12/02 07:47:38;;;;;;;20.00;16.55;;;7.20;97.20;;;;;;1661722;29;20219;-74
2022/12/02 07:48:31;;;;;;;21.70;16.07;;;7.10;97.20;;;;;;1662088;29;20207;-74
2022/12/02 07:49:22;;;;;;;22.20;17.92;;;7.10;97.20;;;;;;1661877;29;20215;-74
2022/12/02 07:50:16;;;;;;;24.27;17.70;;;7.20;97.20;;;;;;1661124;29;20243;-74
2022/12/02 07:51:07;;;;;;;21.60;16.45;;;7.20;97.20;;;;;;1661826;29;20870;-73
2022/12/02 07:51:58;;;;;;;22.47;17.17;;;7.20;97.20;;;;;;1661967;29;20218;-74
2022/12/02 07:52:49;;;;;;;22.27;16.92;;;7.20;97.20;;;;;;1662117;29;20456;-74
2022/12/02 07:53:41;;;;;;;23.50;17.40;;;7.20;97.20;;;;;;1661957;29;20213;-75
2022/12/02 07:54:32;;;;;;;23.15;17.10;;;7.20;97.20;;;;;;1661969;29;20256;-74
2022/12/02 07:55:24;;;;;;;24.60;18.35;;;7.20;97.20;;;;;;1661940;29;20217;-74
2022/12/02 07:56:14;;;;;;;23.02;16.35;;;7.20;97.20;;;;;;1658349;29;20223;-74
2022/12/02 07:57:06;;;;;;;22.60;17.50;;;7.20;97.20;;;;;;1661560;29;20211;-74
2022/12/02 07:57:57;;;;;;;22.17;16.77;;;7.20;97.20;;;;;;1661472;29;20695;-75
2022/12/02 07:58:49;;;;;;;22.50;16.90;;;7.20;97.20;;;;;;1661410;29;20779;-73
2022/12/02 07:59:39;;;;;;;22.13;16.92;;;7.20;97.20;;;;;;1661867;29;20684;-73
2022/12/02 08:00:31;;;;;;;21.50;17.00;;;7.20;97.20;;;;;;1661169;29;20632;-72
2022/12/02 08:01:23;;;;;;;23.40;17.48;;;7.20;97.20;;;;;;1661590;29;20701;-73
2022/12/02 08:02:14;;;;;;;21.65;17.50;;;7.20;97.20;;;;;;1661913;29;20692;-73
2022/12/02 08:03:05;;;;;;;20.70;16.40;;;7.20;97.20;;;;;;1661906;29;20218;-73
2022/12/02 08:03:58;;;;;;;21.10;17.33;;;7.20;97.20;;;;;;1661904;29;20217;-73
2022/12/02 08:04:49;;;;;;;20.08;16.77;;;7.20;97.20;;;;;;1661941;29;20207;-73
2022/12/02 08:05:40;;;;;;;21.47;17.27;;;7.20;97.20;;;;;;1661739;29;20207;-73
2022/12/02 08:06:31;;;;;;;20.08;17.17;;;7.20;97.20;;;;;;1661862;29;20215;-73
2022/12/02 08:07:23;;;;;;;20.10;15.93;;;7.20;97.20;;;;;;1661746;29;20207;-74
2022/12/02 08:08:14;;;;;;;22.83;17.35;;;7.20;97.20;;;;;;1661826;29;20216;-73
2022/12/02 08:09:05;;;;;;;25.30;17.80;;;7.20;97.20;;;;;;1661788;29;20301;-74
2022/12/02 08:09:56;;;;;;;22.05;16.73;;;7.20;97.20;;;;;;1661284;29;20218;-73
2022/12/02 08:10:48;;;;;;;24.37;17.80;;;7.20;97.20;;;;;;1662017;29;20706;-74
2022/12/02 08:11:38;;;;;;;22.02;17.25;;;7.20;97.20;;;;;;1662265;29;20219;-73
2022/12/02 08:12:30;;;;;;;23.07;19.00;;;7.20;97.20;;;;;;1662545;29;20730;-73
2022/12/02 08:13:21;;;;;;;25.33;17.85;;;7.20;97.20;;;;;;1662825;29;20238;-73
2022/12/02 08:14:13;;;;;;;23.13;18.83;;;7.20;97.20;;;;;;1662845;29;20219;-73
2022/12/02 08:15:05;;;;;;;25.42;18.92;;;7.20;97.20;;;;;;1662969;29;20569;-73
2022/12/02 08:15:56;;;;;;;23.73;18.45;;;7.20;97.20;;;;;;1662916;29;20261;-73
2022/12/02 08:16:47;;;;;;;29.55;20.25;;;7.20;97.20;;;;;;1662762;29;20587;-74
2022/12/02 08:17:39;;;;;;;24.53;17.93;;;7.20;97.20;;;;;;1662984;29;20207;-73
2022/12/02 08:18:30;;;;;;;24.63;18.88;;;7.20;97.20;;;;;;1662958;29;20218;-74
2022/12/02 08:19:23;;;;;;;25.50;19.10;;;7.20;97.20;;;;;;1662949;29;20690;-76
2022/12/02 08:20:15;;;;;;;23.17;19.45;;;7.20;97.20;;;;;;1662318;29;20832;-74
2022/12/02 08:21:06;;;;;;;22.52;18.15;;;7.20;97.20;;;;;;1662930;29;20211;-75
2022/12/02 08:21:57;;;;;;;22.50;18.03;;;7.20;97.20;;;;;;1662875;29;20215;-73
2022/12/02 08:22:48;;;;;;;22.13;17.58;;;7.20;97.20;;;;;;1663005;29;20214;-74
2022/12/02 08:23:40;;;;;;;26.03;18.67;;;7.20;97.20;;;;;;1662643;29;20659;-75
2022/12/02 08:24:30;;;;;;;22.33;17.85;;;7.20;97.20;;;;;;1663061;29;20211;-74
2022/12/02 08:25:22;;;;;;;22.47;18.23;;;7.20;97.20;;;;;;1662856;29;20200;-73
2022/12/02 08:26:13;;;;;;;25.38;19.42;;;7.20;97.20;;;;;;1662914;29;20207;-75
2022/12/02 08:27:05;;;;;;;22.90;17.77;;;7.20;97.20;;;;;;1662811;29;20207;-74
2022/12/02 08:27:55;;;;;;;25.45;19.98;;;7.20;97.20;;;;;;1662964;29;20674;-75
2022/12/02 08:28:47;;;;;;;22.87;18.60;;;7.20;97.20;;;;;;1662957;29;20579;-75
2022/12/02 08:29:39;;;;;;;25.20;20.45;;;7.20;97.20;;;;;;1662883;29;20204;-75
2022/12/02 08:30:29;;;;;;;22.80;18.30;;;7.20;97.20;;;;;;1662280;29;20239;-75
2022/12/02 08:31:21;;;;;;;24.50;18.50;;;7.20;97.20;;;;;;1662757;29;20211;-75
2022/12/02 08:32:12;;;;;;;24.45;19.05;;;7.20;97.20;;;;;;1662968;29;20605;-75
2022/12/02 08:33:04;;;;;;;24.13;19.27;;;7.20;97.20;;;;;;1662862;29;20302;-75
2022/12/02 08:33:55;;;;;;;30.55;20.13;;;7.20;97.20;;;;;;1662913;29;20207;-74
2022/12/02 08:34:48;;;;;;;27.50;19.10;;;7.20;97.20;;;;;;1662606;29;20222;-74
2022/12/02 08:35:38;;;;;;;26.42;19.55;;;7.20;97.20;;;;;;1662719;29;20461;-74
2022/12/02 08:36:34;;;;;;;26.30;20.23;;;7.20;97.20;;;;;;1662399;29;20206;-73
2022/12/02 08:37:24;;;;;;;24.90;19.50;;;7.20;97.20;;;;;;1660353;29;20211;-75
2022/12/02 08:38:17;;;;;;;26.80;20.23;;;7.20;97.20;;;;;;1662854;29;20219;-74
2022/12/02 08:39:08;;;;;;;28.02;20.88;;;7.20;97.20;;;;;;1662779;29;20207;-75
2022/12/02 08:40:00;;;;;;;30.80;22.07;;;7.20;97.20;;;;;;1662135;29;20203;-75
2022/12/02 08:40:50;;;;;;;30.08;22.52;;;7.20;97.20;;;;;;1662748;29;20599;-75
2022/12/02 08:41:42;;;;;;;28.97;20.33;;;7.20;97.20;;;;;;1662680;29;20237;-74
2022/12/02 08:42:33;;;;;;;28.92;22.67;;;7.20;97.20;;;;;;1662852;29;20600;-75
2022/12/02 08:43:25;;;;;;;30.50;21.70;;;7.20;97.20;;;;;;1662646;29;20195;-74
2022/12/02 08:44:15;;;;;;;31.17;22.40;;;7.30;97.20;;;;;;1662743;29;20211;-75
2022/12/02 08:45:08;;;;;;;34.53;22.60;;;7.30;97.20;;;;;;1662925;29;20214;-75
2022/12/02 08:45:59;;;;;;;29.52;22.00;;;7.30;97.20;;;;;;1662768;29;20697;-75
2022/12/02 08:46:50;;;;;;;31.55;21.63;;;7.30;97.20;;;;;;1662672;29;20259;-74
2022/12/02 08:47:41;;;;;;;33.55;23.85;;;7.30;97.20;;;;;;1662862;29;20211;-75
2022/12/02 08:48:33;;;;;;;30.17;21.53;;;7.30;97.20;;;;;;1662634;29;20294;-75
2022/12/02 08:49:24;;;;;;;34.22;24.30;;;7.20;97.20;;;;;;1662694;29;20222;-75
2022/12/02 08:50:17;;;;;;;32.60;22.50;;;7.30;97.20;;;;;;1661986;29;20206;-75
2022/12/02 08:51:08;;;;;;;30.95;22.85;;;7.20;97.20;;;;;;1662692;29;20449;-75
2022/12/02 08:52:00;;;;;;;31.60;23.90;;;7.20;97.20;;;;;;1662702;29;20218;-75
2022/12/02 08:52:50;;;;;;;32.28;22.42;;;7.20;97.20;;;;;;1662805;29;20234;-75
2022/12/02 08:53:42;;;;;;;33.47;23.23;;;7.20;97.20;;;;;;1662678;29;20302;-75
2022/12/02 08:54:33;;;;;;;33.00;22.75;;;7.20;97.20;;;;;;1662740;29;20219;-75
2022/12/02 08:55:24;;;;;;;35.77;23.27;;;7.20;97.20;;;;;;1662652;29;20199;-75
2022/12/02 08:56:15;;;;;;;33.60;23.85;;;7.20;97.20;;;;;;1662566;29;20242;-75
2022/12/02 08:57:07;;;;;;;36.37;24.90;;;7.20;97.20;;;;;;1662471;29;20225;-74
2022/12/02 08:57:58;;;;;;;34.88;23.63;;;7.10;97.20;;;;;;1662634;29;20214;-75
2022/12/02 08:58:49;;;;;;;34.83;23.80;;;7.10;97.20;;;;;;1662807;29;20202;-75
2022/12/02 08:59:41;;;;;;;34.70;23.38;;;7.10;97.20;;;;;;1662654;29;20207;-75
2022/12/02 09:00:32;;;;;;;34.50;23.73;;;7.10;97.20;;;;;;1661898;29;20231;-75
2022/12/02 09:01:24;;;;;;;37.80;25.87;;;7.10;97.20;;;;;;1662550;29;20207;-75
2022/12/02 09:02:14;;;;;;;35.83;24.13;;;7.10;97.20;;;;;;1662724;29;20645;-75
2022/12/02 09:03:06;;;;;;;35.67;24.93;;;7.10;97.20;;;;;;1662642;29;20207;-75
2022/12/02 09:03:57;;;;;;;34.58;23.90;;;7.10;97.20;;;;;;1662695;29;20222;-75
2022/12/02 09:04:49;;;;;;;38.53;24.20;;;7.10;97.20;;;;;;1662788;29;20286;-75
2022/12/02 09:05:42;;;;;;;35.17;24.17;;;7.10;97.20;;;;;;1661417;29;20476;-74
2022/12/02 09:06:33;;;;;;;36.30;24.40;;;7.10;97.20;;;;;;1662465;29;20222;-74
2022/12/02 09:07:24;;;;;;;35.13;24.03;;;7.10;97.20;;;;;;1662336;29;20203;-75
2022/12/02 09:08:15;;;;;;;36.83;24.55;;;7.10;97.20;;;;;;1662460;29;20211;-75
2022/12/02 09:09:07;;;;;;;32.53;23.37;;;7.10;97.20;;;;;;1662637;29;20294;-75
2022/12/02 09:09:58;;;;;;;34.00;23.85;;;7.10;97.20;;;;;;1661876;29;20212;-74
2022/12/02 09:10:49;;;;;;;35.03;23.97;;;7.10;97.20;;;;;;1662575;29;20239;-75
2022/12/02 09:11:40;;;;;;;33.33;24.13;;;7.10;97.20;;;;;;1662499;29;20215;-74
2022/12/02 09:12:32;;;;;;;34.10;23.27;;;7.10;97.20;;;;;;1662640;29;20205;-75
2022/12/02 09:13:23;;;;;;;33.83;22.70;;;7.20;97.20;;;;;;1662575;29;20456;-75
2022/12/02 09:14:15;;;;;;;33.10;23.93;;;7.20;97.20;;;;;;1662275;29;20669;-74
2022/12/02 09:15:07;;;;;;;31.83;23.50;;;7.20;97.20;;;;;;1662517;29;20219;-75
2022/12/02 09:15:58;;;;;;;37.22;24.58;;;7.20;97.20;;;;;;1662489;29;20289;-74
2022/12/02 09:16:49;;;;;;;33.60;23.70;;;7.20;97.20;;;;;;1662494;29;20227;-75
2022/12/02 09:17:41;;;;;;;36.07;24.10;;;7.20;97.20;;;;;;1662501;29;20233;-75
2022/12/02 09:18:32;;;;;;;37.78;24.40;;;7.20;97.20;;;;;;1662557;29;20223;-75
2022/12/02 09:19:23;;;;;;;32.30;24.47;;;7.20;97.20;;;;;;1662764;29;20218;-75
2022/12/02 09:20:15;;;;;;;33.58;24.45;;;7.20;97.20;;;;;;1661995;29;20238;-75
2022/12/02 09:21:08;;;;;;;35.85;24.55;;;7.20;97.20;;;;;;1662604;29;20254;-75
2022/12/02 09:21:59;;;;;;;38.67;25.88;;;7.20;97.20;;;;;;1662230;29;20219;-75
2022/12/02 09:22:51;;;;;;;33.17;24.67;;;7.20;97.20;;;;;;1662570;29;20217;-75
2022/12/02 09:23:42;;;;;;;34.05;23.85;;;7.20;97.20;;;;;;1662714;29;20212;-75
2022/12/02 09:24:33;;;;;;;33.40;23.27;;;7.20;97.20;;;;;;1662624;29;20207;-75
2022/12/02 09:25:24;;;;;;;30.67;23.80;;;7.20;97.20;;;;;;1662603;29;20219;-75
2022/12/02 09:26:16;;;;;;;33.03;23.90;;;7.20;97.20;;;;;;1662644;29;20218;-74
2022/12/02 09:27:07;;;;;;;33.05;25.08;;;7.20;97.20;;;;;;1662364;29;20215;-75
2022/12/02 09:27:58;;;;;;;31.97;23.00;;;7.20;97.20;;;;;;1662635;29;20217;-74
2022/12/02 09:28:49;;;;;;;33.72;23.52;;;7.20;97.20;;;;;;1662672;29;20212;-75
2022/12/02 09:29:41;;;;;;;33.33;23.27;;;7.20;97.20;;;;;;1662620;29;20286;-75
2022/12/02 09:30:31;;;;;;;32.45;23.33;;;7.20;97.20;;;;;;1661675;29;20860;-75
2022/12/02 09:31:23;;;;;;;30.30;22.37;;;7.20;97.20;;;;;;1662410;29;20233;-74
2022/12/02 09:32:14;;;;;;;33.25;22.98;;;7.20;97.20;;;;;;1662214;29;20203;-75
2022/12/02 09:33:06;;;;;;;33.60;21.60;;;7.20;97.20;;;;;;1662663;29;20666;-75
2022/12/02 09:33:57;;;;;;;29.35;21.38;;;7.20;97.20;;;;;;1662447;29;20215;-74
2022/12/02 09:34:48;;;;;;;31.27;21.70;;;7.20;97.20;;;;;;1662595;29;20286;-78
2022/12/02 09:35:39;;;;;;;33.08;21.30;;;7.20;97.20;;;;;;1661992;29;20218;-73
2022/12/02 09:36:32;;;;;;;31.93;22.83;;;7.20;97.20;;;;;;1662166;29;20215;-72
2022/12/02 09:37:23;;;;;;;34.28;22.40;;;7.30;97.20;;;;;;1661744;29;20219;-75
2022/12/02 09:38:15;;;;;;;27.53;19.77;;;7.20;97.20;;;;;;1662033;29;20210;-76
2022/12/02 09:39:05;;;;;;;32.30;21.33;;;7.20;97.20;;;;;;1662012;29;20951;-74
2022/12/02 09:39:57;;;;;;;27.77;20.03;;;7.20;97.20;;;;;;1662050;29;20576;-74
2022/12/02 09:40:48;;;;;;;26.98;19.77;;;7.20;97.20;;;;;;1662521;29;20472;-74
2022/12/02 09:41:40;;;;;;;25.77;20.07;;;7.20;97.20;;;;;;1662236;29;20210;-74
2022/12/02 09:42:31;;;;;;;27.90;19.98;;;7.20;97.20;;;;;;1662573;29;20329;-75
2022/12/02 09:43:23;;;;;;;27.13;19.05;;;7.20;97.20;;;;;;1662444;29;20583;-75
2022/12/02 09:44:14;;;;;;;28.33;20.15;;;7.30;97.20;;;;;;1662343;29;20215;-74
2022/12/02 09:45:06;;;;;;;28.90;20.07;;;7.30;97.20;;;;;;1662596;29;20211;-74
2022/12/02 09:45:58;;;;;;;27.75;19.75;;;7.20;97.20;;;;;;1662564;29;20464;-75
2022/12/02 09:46:50;;;;;;;26.10;19.23;;;7.30;97.20;;;;;;1662118;29;20199;-74
2022/12/02 09:47:41;;;;;;;28.48;19.25;;;7.30;97.20;;;;;;1662421;29;20219;-74
2022/12/02 09:48:33;;;;;;;28.05;20.27;;;7.30;97.20;;;;;;1662478;29;20276;-75
2022/12/02 09:49:24;;;;;;;26.25;19.42;;;7.30;97.20;;;;;;1662619;29;20218;-75
2022/12/02 09:50:17;;;;;;;24.10;19.10;;;7.30;97.20;;;;;;1661860;29;20208;-75
2022/12/02 09:51:09;;;;;;;27.67;20.40;;;7.30;97.20;;;;;;1661749;29;20512;-75
2022/12/02 09:52:05;;;;;;;22.08;17.15;;;7.30;97.20;;;;;;1662440;29;20592;-75
2022/12/02 09:53:01;;;;;;;26.48;19.65;;;7.30;97.20;;;;;;1662425;29;20211;-74
2022/12/02 09:53:53;;;;;;;26.48;19.38;;;7.30;97.20;;;;;;1662596;29;20218;-74
2022/12/02 09:54:45;;;;;;;24.40;18.08;;;7.30;97.20;;;;;;1662462;29;20211;-74
2022/12/02 09:55:37;;;;;;;25.60;18.58;;;7.30;97.20;;;;;;1662457;29;20706;-75
2022/12/02 09:56:29;;;;;;;23.38;17.85;;;7.30;97.20;;;;;;1662466;29;20274;-74
2022/12/02 09:57:24;;;;;;;24.25;18.58;;;7.30;97.20;;;;;;1662233;29;20297;-74
2022/12/02 09:58:18;;;;;;;26.50;19.92;;;7.40;97.20;;;;;;1662525;29;20218;-74
2022/12/02 09:59:14;;;;;;;24.67;18.23;;;7.30;97.20;;;;;;1662528;29;20214;-75
2022/12/02 10:00:12;;;;;;;24.38;17.88;;;7.40;97.20;;;;;;1662088;29;20211;-75
2022/12/02 10:01:08;;;;;;;26.20;18.20;;;7.30;97.20;;;;;;1662408;29;20199;-74
2022/12/02 10:01:59;;;;;;;23.05;17.02;;;7.40;97.20;;;;;;1662405;29;20601;-74
2022/12/02 10:02:52;;;;;;;23.92;17.23;;;7.40;97.20;;;;;;1662674;29;20566;-75
2022/12/02 10:03:45;;;;;;;25.23;17.58;;;7.40;97.20;;;;;;1662203;29;20206;-74
2022/12/02 10:04:36;;;;;;;21.98;17.58;;;7.40;97.20;;;;;;1662517;29;20218;-75
2022/12/02 10:05:29;;;;;;;21.40;16.27;;;7.40;97.20;;;;;;1662225;29;20214;-75
2022/12/02 10:06:24;;;;;;;21.70;15.70;;;7.40;97.20;;;;;;1662471;29;20452;-75
2022/12/02 10:07:16;;;;;;;21.90;16.80;;;7.40;97.20;;;;;;1662268;29;20215;-75
2022/12/02 10:08:13;;;;;;;19.58;15.35;;;7.40;97.20;;;;;;1662335;29;20203;-75
2022/12/02 10:09:04;;;;;;;19.13;15.20;;;7.40;97.20;;;;;;1662463;29;20219;-74
2022/12/02 10:09:55;;;;;;;20.93;14.93;;;7.40;97.20;;;;;;1661962;29;20207;-74
2022/12/02 10:10:47;;;;;;;20.40;15.50;;;7.40;97.20;;;;;;1662214;29;20238;-74
2022/12/02 10:11:39;;;;;;;20.20;15.57;;;7.40;97.20;;;;;;1662313;29;20220;-75
2022/12/02 10:12:29;;;;;;;20.67;16.00;;;7.40;97.20;;;;;;1662636;29;20207;-74
2022/12/02 10:13:23;;;;;;;19.70;15.43;;;7.40;97.20;;;;;;1662509;29;20223;-74
2022/12/02 10:14:14;;;;;;;19.02;14.75;;;7.40;97.20;;;;;;1662530;29;20260;-75
2022/12/02 10:15:07;;;;;;;18.20;14.93;;;7.40;97.20;;;;;;1662395;29;20207;-75
2022/12/02 10:16:01;;;;;;;19.55;15.43;;;7.40;97.20;;;;;;1662423;29;20208;-75
2022/12/02 10:16:54;;;;;;;19.38;15.30;;;7.40;97.20;;;;;;1662356;29;20207;-75
2022/12/02 10:17:45;;;;;;;19.90;15.98;;;7.40;97.20;;;;;;1662529;29;20218;-74
2022/12/02 10:18:37;;;;;;;21.48;14.75;;;7.40;97.20;;;;;;1662379;29;20305;-74
2022/12/02 10:19:28;;;;;;;20.30;16.45;;;7.40;97.20;;;;;;1662198;29;20206;-75
2022/12/02 10:20:22;;;;;;;20.85;14.95;;;7.40;97.20;;;;;;1661762;29;20622;-74
2022/12/02 10:21:13;;;;;;;21.38;15.50;;;7.40;97.20;;;;;;1662321;29;20211;-75
2022/12/02 10:22:14;;;;;;;21.33;15.32;;;7.40;97.20;;;;;;1662327;29;20211;-74
2022/12/02 10:23:09;;;;;;;19.98;14.82;;;7.40;97.20;;;;;;1662478;29;20682;-74
2022/12/02 10:24:03;;;;;;;20.33;15.00;;;7.40;97.20;;;;;;1662365;29;20226;-75
2022/12/02 10:24:53;;;;;;;18.17;14.43;;;7.40;97.20;;;;;;1662524;29;20215;-75
2022/12/02 10:25:47;;;;;;;19.30;15.30;;;7.40;97.20;;;;;;1662461;29;20211;-74
2022/12/02 10:26:44;;;;;;;20.48;16.08;;;7.40;97.20;;;;;;1662115;29;20218;-74
2022/12/02 10:27:36;;;;;;;19.77;15.75;;;7.40;97.20;;;;;;1662484;29;20214;-75
2022/12/02 10:28:29;;;;;;;18.27;14.50;;;7.40;97.20;;;;;;1662347;29;20679;-75
2022/12/02 10:29:28;;;;;;;20.67;16.48;;;7.40;97.20;;;;;;1662399;29;20374;-75
2022/12/02 10:30:22;;;;;;;19.10;16.00;;;7.40;97.20;;;;;;1661535;29;20211;-74
2022/12/02 10:31:21;;;;;;;19.15;14.85;;;7.40;97.20;;;;;;1662154;29;20323;-77
2022/12/02 10:32:19;;;;;;;23.73;15.43;;;7.40;97.20;;;;;;1662458;29;20953;-74
2022/12/02 10:33:13;;;;;;;19.73;15.15;;;7.40;97.20;;;;;;1662372;29;20203;-74
2022/12/02 10:34:06;;;;;;;18.38;13.95;;;7.40;97.20;;;;;;1661538;29;20231;-75
2022/12/02 10:35:03;;;;;;;19.95;14.98;;;7.40;97.20;;;;;;1662192;29;20682;-74